Time;durP1;ratioP1;P1;durP2;ratioP2;P2;SDS_P1;SDS_P2;PMS_P1;PMS_P2;Temp;Humidity;BMP_temperature;BMP_pressure;BME280_temperature;BME280_humidity;BME280_pressure;Samples;Min_cycle;Max_cycle;Signal;HPM_P1;HPM_P2
2022/06/25 00:01:06;;;;;;;2.80;2.60;;;20.40;99.90;;;;;;7375095;19;20354;-77
2022/06/25 00:03:32;;;;;;;2.92;2.72;;;20.40;99.90;;;;;;7378265;19;20346;-77
2022/06/25 00:05:57;;;;;;;3.47;3.17;;;20.50;99.90;;;;;;7377660;19;20731;-77
2022/06/25 00:08:23;;;;;;;2.70;2.50;;;20.40;99.90;;;;;;7374997;19;20377;-77
2022/06/25 00:10:49;;;;;;;3.10;2.90;;;20.30;99.90;;;;;;7373036;19;20320;-78
2022/06/25 00:13:14;;;;;;;3.00;2.70;;;20.30;99.90;;;;;;7371948;19;20305;-78
2022/06/25 00:15:40;;;;;;;3.33;3.05;;;20.30;99.90;;;;;;7372364;19;20749;-77
2022/06/25 00:18:06;;;;;;;2.67;2.47;;;20.30;99.90;;;;;;7372476;19;20348;-77
2022/06/25 00:20:31;;;;;;;3.40;3.10;;;20.30;99.90;;;;;;7369626;19;20316;-76
2022/06/25 00:22:57;;;;;;;3.00;2.80;;;20.30;99.90;;;;;;7371183;19;20361;-77
2022/06/25 00:25:22;;;;;;;3.30;3.00;;;20.20;99.90;;;;;;7371930;19;20324;-76
2022/06/25 00:27:48;;;;;;;2.90;2.70;;;20.20;99.90;;;;;;7370747;19;20308;-76
2022/06/25 00:30:13;;;;;;;2.70;2.50;;;20.30;99.90;;;;;;7365371;19;20361;-77
2022/06/25 00:32:39;;;;;;;3.15;2.88;;;20.30;99.90;;;;;;7363702;19;20341;-76
2022/06/25 00:35:05;;;;;;;3.10;2.90;;;20.30;99.90;;;;;;7364845;19;20507;-77
2022/06/25 00:37:31;;;;;;;3.80;3.50;;;20.20;99.90;;;;;;7373083;19;20408;-76
2022/06/25 00:39:56;;;;;;;4.17;3.23;;;20.10;99.90;;;;;;7370668;19;20920;-76
2022/06/25 00:42:23;;;;;;;3.20;2.90;;;20.20;99.90;;;;;;7369667;19;20947;-77
2022/06/25 00:44:48;;;;;;;3.38;3.13;;;20.20;99.90;;;;;;7370537;19;20311;-78
2022/06/25 00:47:14;;;;;;;3.50;3.17;;;20.30;99.90;;;;;;7370788;19;20360;-77
2022/06/25 00:49:41;;;;;;;3.10;2.80;;;20.30;99.90;;;;;;7368823;19;20333;-77
2022/06/25 00:52:11;;;;;;;3.40;3.10;;;20.30;99.90;;;;;;7369170;19;20345;-77
2022/06/25 00:54:38;;;;;;;3.00;2.80;;;20.40;99.90;;;;;;7370568;19;20859;-77
2022/06/25 00:57:07;;;;;;;3.40;3.10;;;20.40;99.90;;;;;;7368847;19;20360;-78
2022/06/25 00:59:38;;;;;;;2.65;2.45;;;20.50;99.90;;;;;;7369105;19;20700;-77
2022/06/25 01:02:04;;;;;;;3.53;3.05;;;20.50;99.90;;;;;;7367875;19;20373;-77
2022/06/25 01:04:29;;;;;;;4.20;3.63;;;20.50;99.90;;;;;;7370859;19;20329;-78
2022/06/25 01:06:55;;;;;;;3.70;3.40;;;20.60;99.90;;;;;;7370300;19;20357;-77
2022/06/25 01:09:21;;;;;;;4.03;3.73;;;20.50;99.90;;;;;;7371460;19;20395;-77
2022/06/25 01:11:47;;;;;;;2.90;2.70;;;20.50;99.90;;;;;;7370011;19;20329;-76
2022/06/25 01:14:14;;;;;;;3.80;3.50;;;20.40;99.90;;;;;;7368565;19;20874;-77
2022/06/25 01:16:40;;;;;;;4.80;3.90;;;20.50;99.90;;;;;;7369315;19;20313;-77
2022/06/25 01:19:07;;;;;;;3.30;3.10;;;20.30;99.90;;;;;;7370005;19;20412;-78
2022/06/25 01:21:33;;;;;;;3.10;2.90;;;20.20;99.90;;;;;;7368947;19;20768;-77
2022/06/25 01:23:59;;;;;;;5.00;3.25;;;20.20;99.90;;;;;;7374203;19;20348;-77
2022/06/25 01:26:25;;;;;;;3.00;2.80;;;20.20;99.90;;;;;;7373160;19;20332;-77
2022/06/25 01:28:51;;;;;;;3.28;2.90;;;20.20;99.90;;;;;;7370131;19;20352;-77
2022/06/25 01:31:16;;;;;;;3.63;2.78;;;20.20;99.90;;;;;;7368283;19;20349;-77
2022/06/25 01:33:42;;;;;;;3.50;3.20;;;20.20;99.90;;;;;;7366565;19;20451;-77
2022/06/25 01:36:07;;;;;;;3.10;2.90;;;20.20;99.90;;;;;;7372071;19;20874;-77
2022/06/25 01:38:33;;;;;;;3.20;2.90;;;20.20;99.90;;;;;;7375801;19;20347;-77
2022/06/25 01:41:01;;;;;;;3.20;2.90;;;20.10;99.90;;;;;;7370298;19;20825;-77
2022/06/25 01:43:26;;;;;;;3.20;2.90;;;20.10;99.90;;;;;;7375972;19;20335;-78
2022/06/25 01:45:52;;;;;;;3.28;2.72;;;20.10;99.90;;;;;;7381364;19;20357;-78
2022/06/25 01:48:17;;;;;;;3.05;2.85;;;20.00;99.90;;;;;;7381789;19;20352;-78
2022/06/25 01:50:43;;;;;;;3.10;2.90;;;20.00;99.90;;;;;;7378615;19;20348;-77
2022/06/25 01:53:09;;;;;;;2.78;2.58;;;20.00;99.90;;;;;;7379826;19;20346;-77
2022/06/25 01:55:34;;;;;;;3.10;2.90;;;20.00;99.90;;;;;;7380108;19;20343;-78
2022/06/25 01:58:00;;;;;;;3.47;3.10;;;20.00;99.90;;;;;;7380737;19;21178;-78
2022/06/25 02:00:27;;;;;;;3.10;2.90;;;20.00;99.90;;;;;;7378381;19;20316;-77
2022/06/25 02:02:59;;;;;;;4.50;3.40;;;19.90;99.90;;;;;;7381371;19;20922;-77
2022/06/25 02:08:10;;;;;;;3.22;3.00;;;19.90;99.90;;;;;;7279623;19;2004358;-78
2022/06/25 02:10:36;;;;;;;3.40;3.03;;;19.90;99.90;;;;;;7381299;19;21043;-77
2022/06/25 02:13:02;;;;;;;3.10;2.90;;;19.90;99.90;;;;;;7382219;19;20352;-77
2022/06/25 02:15:28;;;;;;;3.72;3.35;;;20.00;99.90;;;;;;7382439;19;20329;-77
2022/06/25 02:17:54;;;;;;;3.38;3.10;;;20.00;99.90;;;;;;7383459;19;21151;-76
2022/06/25 02:20:19;;;;;;;3.90;3.30;;;20.00;99.90;;;;;;7380780;19;20391;-76
2022/06/25 02:22:45;;;;;;;3.30;3.00;;;19.90;99.90;;;;;;7381139;19;20575;-77
2022/06/25 02:25:10;;;;;;;4.47;3.20;;;19.90;99.90;;;;;;7380849;19;20395;-77
2022/06/25 02:27:36;;;;;;;3.67;3.17;;;19.90;99.90;;;;;;7383068;19;20324;-76
2022/06/25 02:30:02;;;;;;;3.50;3.20;;;20.00;99.90;;;;;;7376480;19;20896;-77
2022/06/25 02:32:30;;;;;;;3.43;3.13;;;20.00;99.90;;;;;;7380495;19;20323;-76
2022/06/25 02:34:56;;;;;;;4.65;4.25;;;20.00;99.90;;;;;;7378624;19;20332;-77
2022/06/25 02:37:22;;;;;;;3.90;3.13;;;19.90;99.90;;;;;;7378947;19;20305;-76
2022/06/25 02:39:47;;;;;;;3.90;3.60;;;19.90;99.90;;;;;;7378576;19;20336;-77
2022/06/25 02:42:13;;;;;;;3.72;3.35;;;19.80;99.90;;;;;;7379878;19;20360;-77
2022/06/25 02:44:38;;;;;;;4.17;3.77;;;19.90;99.90;;;;;;7378164;19;20333;-76
2022/06/25 02:47:04;;;;;;;4.47;3.67;;;19.90;99.90;;;;;;7376267;19;20353;-76
2022/06/25 02:49:45;;;;;;;4.38;3.95;;;19.90;99.90;;;;;;7378307;19;20311;-77
2022/06/25 02:52:11;;;;;;;3.85;3.55;;;19.90;99.90;;;;;;7376595;19;20340;-77
2022/06/25 02:54:37;;;;;;;4.43;4.03;;;19.90;99.90;;;;;;7377170;19;20356;-76
2022/06/25 02:59:47;;;;;;;4.00;3.70;;;19.90;99.90;;;;;;7378294;19;20372;-76
2022/06/25 03:02:13;;;;;;;3.17;2.93;;;19.90;99.90;;;;;;7376992;19;20351;-76
2022/06/25 03:04:42;;;;;;;4.25;3.95;;;19.90;99.90;;;;;;7380105;19;20851;-76
2022/06/25 03:07:08;;;;;;;4.00;3.60;;;19.90;99.90;;;;;;7375625;19;20340;-77
2022/06/25 03:09:34;;;;;;;4.00;3.67;;;19.90;99.90;;;;;;7378180;19;20300;-77
2022/06/25 03:12:01;;;;;;;3.80;3.50;;;20.00;99.90;;;;;;7371403;19;20337;-77
2022/06/25 03:14:28;;;;;;;3.58;3.33;;;20.00;99.90;;;;;;7379706;19;20300;-76
2022/06/25 03:16:54;;;;;;;4.60;3.93;;;20.00;99.90;;;;;;7376710;19;20337;-77
2022/06/25 03:19:20;;;;;;;4.32;3.78;;;20.00;99.90;;;;;;7378434;19;20340;-76
2022/06/25 03:22:04;;;;;;;4.35;3.95;;;20.00;99.90;;;;;;7271708;19;2004413;-76
2022/06/25 03:24:30;;;;;;;4.35;4.05;;;20.00;99.90;;;;;;7379549;19;20301;-78
2022/06/25 03:26:56;;;;;;;4.40;4.00;;;20.00;99.90;;;;;;7377800;19;20444;-76
2022/06/25 03:29:21;;;;;;;5.27;3.77;;;20.00;99.90;;;;;;7378683;19;20308;-76
2022/06/25 03:31:48;;;;;;;4.20;3.80;;;20.00;99.90;;;;;;7375630;19;20398;-76
2022/06/25 03:34:49;;;;;;;4.35;3.95;;;20.00;99.90;;;;;;7271976;19;2004567;-77
2022/06/25 03:37:15;;;;;;;4.40;4.05;;;20.00;99.90;;;;;;7376883;19;20356;-76
2022/06/25 03:39:41;;;;;;;4.30;3.93;;;20.00;99.90;;;;;;7369248;19;20318;-76
2022/06/25 03:42:06;;;;;;;5.00;4.60;;;20.00;99.90;;;;;;7367236;19;20891;-76
2022/06/25 03:44:55;;;;;;;4.70;4.30;;;20.00;99.90;;;;;;7377252;19;20328;-76
2022/06/25 03:47:27;;;;;;;4.47;4.10;;;20.00;99.90;;;;;;7379998;19;20832;-76
2022/06/25 03:49:53;;;;;;;5.32;4.93;;;20.00;99.90;;;;;;7376596;19;20343;-76
2022/06/25 03:52:21;;;;;;;4.63;4.22;;;19.90;99.90;;;;;;7373602;19;20313;-76
2022/06/25 03:54:47;;;;;;;5.07;4.57;;;19.90;99.90;;;;;;7376111;19;20493;-76
2022/06/25 03:57:13;;;;;;;5.45;5.05;;;19.90;99.90;;;;;;7375191;19;20332;-77
2022/06/25 03:59:53;;;;;;;4.55;4.15;;;19.90;99.90;;;;;;7376957;19;20408;-77
2022/06/25 04:02:23;;;;;;;5.70;5.20;;;19.90;99.90;;;;;;7374445;19;20699;-77
2022/06/25 04:05:09;;;;;;;4.68;4.28;;;19.90;99.90;;;;;;7274013;19;2005458;-77
2022/06/25 04:07:34;;;;;;;5.17;4.30;;;19.80;99.90;;;;;;7374434;19;20365;-76
2022/06/25 04:10:00;;;;;;;5.03;4.63;;;19.90;99.90;;;;;;7375836;19;20982;-76
2022/06/25 04:12:26;;;;;;;4.85;4.30;;;19.90;99.90;;;;;;7373613;19;20963;-77
2022/06/25 04:14:51;;;;;;;5.07;4.32;;;20.00;99.90;;;;;;7376217;19;20675;-77
2022/06/25 04:17:17;;;;;;;5.85;4.93;;;20.00;99.90;;;;;;7375532;19;20403;-76
2022/06/25 04:19:43;;;;;;;6.20;4.67;;;20.10;99.90;;;;;;7376228;19;20350;-77
2022/06/25 04:22:12;;;;;;;5.13;4.70;;;20.00;99.90;;;;;;7370807;19;21254;-77
2022/06/25 04:24:39;;;;;;;5.68;5.18;;;20.10;99.90;;;;;;7373581;19;20323;-77
2022/06/25 04:27:05;;;;;;;4.38;3.97;;;20.00;99.90;;;;;;7376535;19;20328;-77
2022/06/25 04:29:31;;;;;;;4.97;4.57;;;20.10;99.90;;;;;;7376149;19;20359;-76
2022/06/25 04:32:13;;;;;;;5.72;4.85;;;20.10;99.90;;;;;;7370474;19;20354;-77
2022/06/25 04:34:53;;;;;;;4.93;4.53;;;20.10;99.90;;;;;;7376013;19;20759;-77
2022/06/25 04:37:18;;;;;;;5.78;5.28;;;20.20;99.90;;;;;;7375472;19;20413;-76
2022/06/25 04:39:44;;;;;;;7.70;5.07;;;20.20;99.90;;;;;;7376555;19;20316;-76
2022/06/25 04:42:10;;;;;;;6.63;5.30;;;20.10;99.90;;;;;;7369413;19;20351;-77
2022/06/25 04:44:35;;;;;;;5.97;5.47;;;20.10;99.90;;;;;;7373926;19;20347;-77
2022/06/25 04:47:01;;;;;;;5.53;5.03;;;20.10;99.90;;;;;;7374619;19;20339;-77
2022/06/25 04:49:37;;;;;;;5.28;4.88;;;20.10;99.90;;;;;;7376454;19;20763;-76
2022/06/25 04:52:03;;;;;;;5.38;4.90;;;20.20;99.90;;;;;;7371351;19;20344;-79
2022/06/25 04:54:30;;;;;;;5.03;4.63;;;20.20;99.90;;;;;;7378859;19;20312;-77
2022/06/25 04:57:05;;;;;;;5.28;4.88;;;20.30;99.90;;;;;;7273700;19;2004365;-78
2022/06/25 04:59:35;;;;;;;5.23;4.77;;;20.40;99.90;;;;;;7377752;19;20384;-78
2022/06/25 05:02:12;;;;;;;4.40;4.10;;;20.50;99.90;;;;;;7371890;19;20337;-78
2022/06/25 05:04:45;;;;;;;5.32;4.82;;;20.60;99.90;;;;;;7377138;19;20429;-78
2022/06/25 05:07:11;;;;;;;5.30;4.80;;;20.60;99.90;;;;;;7375261;19;20947;-78
2022/06/25 05:09:37;;;;;;;4.88;4.45;;;20.70;99.90;;;;;;7375311;19;20324;-78
2022/06/25 05:12:03;;;;;;;5.20;4.70;;;20.80;99.90;;;;;;7371696;19;20511;-78
2022/06/25 05:14:33;;;;;;;5.45;4.95;;;20.90;99.90;;;;;;7374358;19;20854;-78
2022/06/25 05:16:59;;;;;;;5.80;5.30;;;20.90;99.90;;;;;;7374479;19;20319;-79
2022/06/25 05:19:25;;;;;;;5.60;4.90;;;21.00;99.90;;;;;;7379385;19;20293;-78
2022/06/25 05:21:50;;;;;;;6.17;4.00;;;21.10;99.90;;;;;;7374927;19;20324;-78
2022/06/25 05:24:17;;;;;;;5.32;4.93;;;21.10;99.90;;;;;;7382471;19;20874;-79
2022/06/25 05:26:43;;;;;;;5.87;5.27;;;21.20;99.90;;;;;;7378703;19;20317;-78
2022/06/25 05:29:09;;;;;;;5.07;4.40;;;21.30;99.90;;;;;;7379255;19;20649;-77
2022/06/25 05:31:34;;;;;;;5.38;4.97;;;21.40;99.90;;;;;;7378330;19;20320;-77
2022/06/25 05:34:00;;;;;;;5.60;5.10;;;21.40;99.90;;;;;;7382983;19;20312;-79
2022/06/25 05:36:25;;;;;;;4.90;4.50;;;21.50;99.90;;;;;;7379364;19;20333;-77
2022/06/25 05:38:51;;;;;;;5.10;4.70;;;21.50;99.90;;;;;;7381187;19;20333;-78
2022/06/25 05:41:17;;;;;;;6.03;5.53;;;21.60;99.90;;;;;;7379277;19;20759;-78
2022/06/25 05:43:42;;;;;;;5.32;4.88;;;21.60;99.90;;;;;;7382675;19;20321;-78
2022/06/25 05:46:08;;;;;;;5.97;5.40;;;21.70;99.90;;;;;;7382216;19;20317;-78
2022/06/25 05:48:34;;;;;;;4.97;4.47;;;21.80;99.90;;;;;;7383716;19;20305;-78
2022/06/25 05:50:59;;;;;;;5.28;4.80;;;21.80;99.90;;;;;;7378332;19;20325;-79
2022/06/25 05:53:25;;;;;;;4.93;4.53;;;21.90;99.90;;;;;;7382666;19;20324;-78
2022/06/25 05:55:51;;;;;;;6.45;5.93;;;22.00;99.90;;;;;;7383085;19;20330;-78
2022/06/25 05:58:16;;;;;;;5.65;5.15;;;22.00;99.90;;;;;;7384491;19;20329;-79
2022/06/25 06:00:42;;;;;;;5.90;5.30;;;22.00;99.90;;;;;;7378636;19;21647;-78
2022/06/25 06:03:07;;;;;;;5.07;4.60;;;22.00;99.90;;;;;;7381305;19;20653;-79
2022/06/25 06:05:33;;;;;;;5.38;4.88;;;22.10;99.90;;;;;;7381672;19;20336;-78
2022/06/25 06:07:59;;;;;;;6.27;4.73;;;22.20;99.90;;;;;;7380193;19;20685;-79
2022/06/25 06:10:24;;;;;;;5.33;4.93;;;22.30;99.90;;;;;;7374624;19;20320;-79
2022/06/25 06:12:50;;;;;;;6.70;6.10;;;22.40;99.90;;;;;;7378281;19;20380;-79
2022/06/25 06:15:16;;;;;;;5.00;4.50;;;22.60;99.90;;;;;;7377687;19;20352;-78
2022/06/25 06:17:41;;;;;;;5.30;4.90;;;22.50;99.90;;;;;;7380176;19;20320;-77
2022/06/25 06:20:07;;;;;;;5.70;5.20;;;22.60;99.90;;;;;;7377153;19;20348;-78
2022/06/25 06:22:32;;;;;;;6.85;5.35;;;22.70;99.90;;;;;;7376948;19;20931;-78
2022/06/25 06:24:58;;;;;;;5.87;5.10;;;22.70;99.90;;;;;;7378834;19;20339;-77
2022/06/25 06:27:24;;;;;;;6.00;5.40;;;22.90;99.90;;;;;;7379478;19;20308;-78
2022/06/25 06:29:49;;;;;;;6.00;5.50;;;23.00;99.90;;;;;;7376568;19;20345;-77
2022/06/25 06:32:15;;;;;;;5.30;4.80;;;23.20;99.90;;;;;;7374551;19;20355;-78
2022/06/25 06:34:42;;;;;;;6.90;6.23;;;23.30;99.90;;;;;;7376988;19;20429;-77
2022/06/25 06:37:07;;;;;;;7.18;6.47;;;23.30;99.90;;;;;;7376487;19;20728;-78
2022/06/25 06:39:33;;;;;;;6.38;5.78;;;23.20;99.90;;;;;;7380361;19;20324;-78
2022/06/25 06:41:58;;;;;;;6.97;6.20;;;23.10;99.90;;;;;;7376567;19;20303;-77
2022/06/25 06:44:24;;;;;;;5.20;4.80;;;23.20;99.90;;;;;;7382987;19;20324;-78
2022/06/25 06:46:50;;;;;;;7.40;5.50;;;23.30;99.90;;;;;;7378851;19;20753;-77
2022/06/25 06:49:15;;;;;;;6.38;5.78;;;23.30;99.90;;;;;;7381301;19;20356;-77
2022/06/25 06:51:41;;;;;;;6.50;5.90;;;23.30;99.90;;;;;;7375248;19;20899;-77
2022/06/25 06:54:06;;;;;;;6.53;5.67;;;23.40;99.90;;;;;;7379150;19;20345;-77
2022/06/25 06:56:32;;;;;;;5.23;4.73;;;23.50;99.90;;;;;;7377003;19;20864;-78
2022/06/25 06:58:58;;;;;;;6.38;5.88;;;23.60;99.90;;;;;;7380057;19;20300;-77
2022/06/25 07:01:23;;;;;;;5.68;5.18;;;23.70;99.90;;;;;;7376457;19;20337;-77
2022/06/25 07:03:49;;;;;;;6.63;6.03;;;23.90;99.90;;;;;;7378736;19;20689;-77
2022/06/25 07:06:14;;;;;;;6.70;6.07;;;23.60;99.90;;;;;;7379250;19;20313;-77
2022/06/25 07:08:40;;;;;;;6.30;5.70;;;23.40;99.90;;;;;;7381774;19;20317;-77
2022/06/25 07:13:51;;;;;;;7.57;6.53;;;23.40;99.90;;;;;;7378353;19;20329;-77
2022/06/25 07:16:17;;;;;;;6.60;5.70;;;23.80;99.90;;;;;;7379368;19;20337;-78
2022/06/25 07:18:42;;;;;;;6.55;5.95;;;24.00;99.90;;;;;;7374666;19;20364;-77
2022/06/25 07:21:08;;;;;;;6.47;5.88;;;24.00;99.90;;;;;;7376248;19;20336;-78
2022/06/25 07:23:33;;;;;;;6.40;5.90;;;23.80;99.90;;;;;;7376483;19;20800;-76
2022/06/25 07:25:59;;;;;;;5.80;5.23;;;24.10;99.90;;;;;;7377274;19;20341;-78
2022/06/25 07:28:24;;;;;;;5.80;5.30;;;24.30;99.90;;;;;;7377547;19;20351;-78
2022/06/25 07:30:50;;;;;;;5.60;5.10;;;24.50;99.90;;;;;;7374412;19;20348;-78
2022/06/25 07:33:16;;;;;;;5.03;4.55;;;24.70;99.90;;;;;;7377017;19;20348;-78
2022/06/25 07:35:41;;;;;;;4.65;4.25;;;25.00;99.90;;;;;;7375889;19;20395;-79
2022/06/25 07:38:07;;;;;;;4.83;4.40;;;25.20;99.90;;;;;;7372818;19;20333;-79
2022/06/25 07:40:32;;;;;;;4.27;3.87;;;25.60;99.90;;;;;;7374286;19;21060;-79
2022/06/25 07:42:58;;;;;;;5.13;4.73;;;25.90;99.90;;;;;;7374636;19;20392;-79
2022/06/25 07:45:23;;;;;;;4.60;4.20;;;26.20;99.90;;;;;;7380252;19;20320;-79
2022/06/25 07:47:49;;;;;;;4.60;4.20;;;26.40;99.90;;;;;;7376349;19;20332;-78
2022/06/25 07:52:59;;;;;;;5.75;5.25;;;26.40;99.90;;;;;;7377694;19;20317;-78
2022/06/25 07:55:24;;;;;;;6.40;5.22;;;26.10;99.90;;;;;;7375428;19;20333;-78
2022/06/25 07:57:50;;;;;;;4.67;4.27;;;25.70;99.90;;;;;;7371958;19;20504;-77
2022/06/25 08:00:16;;;;;;;6.00;5.37;;;25.70;99.90;;;;;;7372398;19;20347;-78
2022/06/25 08:02:41;;;;;;;6.20;5.70;;;25.90;99.90;;;;;;7375781;19;20337;-78
2022/06/25 08:05:07;;;;;;;5.60;5.10;;;25.90;99.90;;;;;;7370130;19;20332;-79
2022/06/25 08:07:33;;;;;;;6.00;5.40;;;25.90;99.90;;;;;;7373167;19;20328;-80
2022/06/25 08:09:58;;;;;;;6.60;5.50;;;25.90;99.90;;;;;;7368173;19;20352;-80
2022/06/25 08:12:24;;;;;;;6.20;5.60;;;26.00;99.90;;;;;;7372448;19;21043;-78
2022/06/25 08:14:49;;;;;;;5.30;4.85;;;26.00;99.90;;;;;;7368223;19;20317;-78
2022/06/25 08:17:15;;;;;;;5.93;5.43;;;26.10;99.90;;;;;;7369659;19;20956;-77
2022/06/25 08:19:40;;;;;;;5.70;5.20;;;26.30;99.90;;;;;;7376060;19;20339;-78
2022/06/25 08:22:06;;;;;;;5.20;4.80;;;26.80;99.90;;;;;;7374180;19;20341;-78
2022/06/25 08:24:31;;;;;;;5.00;4.60;;;27.00;99.90;;;;;;7376530;19;20343;-77
2022/06/25 08:26:57;;;;;;;5.33;4.83;;;27.10;99.90;;;;;;7371170;19;20313;-77
2022/06/25 08:29:23;;;;;;;7.85;5.07;;;27.50;99.90;;;;;;7371414;19;20350;-77
2022/06/25 08:31:48;;;;;;;4.65;4.28;;;27.70;99.90;;;;;;7368270;19;20313;-77
2022/06/25 08:34:14;;;;;;;5.15;4.68;;;27.80;99.90;;;;;;7375314;19;20403;-77
2022/06/25 08:36:39;;;;;;;5.40;5.00;;;28.20;99.90;;;;;;7372344;19;20309;-77
2022/06/25 08:39:05;;;;;;;5.20;4.70;;;28.50;99.90;;;;;;7374943;19;20356;-77
2022/06/25 08:41:31;;;;;;;6.10;4.83;;;28.60;99.90;;;;;;7368163;19;21134;-76
2022/06/25 08:43:56;;;;;;;5.72;4.95;;;28.70;99.90;;;;;;7373798;19;20308;-77
2022/06/25 08:46:22;;;;;;;6.00;5.40;;;28.60;99.90;;;;;;7373438;19;20344;-77
2022/06/25 08:48:50;;;;;;;5.95;5.25;;;28.30;99.90;;;;;;7374969;19;20360;-77
2022/06/25 08:51:18;;;;;;;5.68;5.18;;;28.40;99.90;;;;;;7374885;19;21019;-77
2022/06/25 08:53:43;;;;;;;5.70;5.20;;;28.40;99.90;;;;;;7376932;19;20340;-77
2022/06/25 08:56:09;;;;;;;7.07;5.37;;;28.50;99.90;;;;;;7380654;19;20340;-77
2022/06/25 08:58:35;;;;;;;6.57;5.87;;;28.60;99.90;;;;;;7378430;19;20345;-77
2022/06/25 09:01:01;;;;;;;6.18;5.10;;;28.80;99.90;;;;;;7375423;19;20308;-77
2022/06/25 09:03:26;;;;;;;5.13;4.73;;;28.80;99.90;;;;;;7381040;19;20341;-77
2022/06/25 09:05:52;;;;;;;5.87;5.27;;;28.80;99.90;;;;;;7379060;19;20349;-76
2022/06/25 09:08:18;;;;;;;5.27;4.77;;;28.90;99.90;;;;;;7382502;19;20344;-79
2022/06/25 09:10:45;;;;;;;4.82;4.43;;;29.00;99.90;;;;;;7379251;19;20339;-78
2022/06/25 09:13:11;;;;;;;6.00;5.00;;;29.10;99.90;;;;;;7380933;19;20404;-76
2022/06/25 09:15:39;;;;;;;6.30;4.68;;;28.80;99.90;;;;;;7378984;19;20866;-77
2022/06/25 09:18:06;;;;;;;4.95;4.38;;;28.50;99.90;;;;;;7377606;19;20364;-77
2022/06/25 09:20:32;;;;;;;5.80;4.80;;;28.40;99.90;;;;;;7375661;19;20328;-76
2022/06/25 09:23:05;;;;;;;4.40;4.00;;;28.70;99.90;;;;;;7380623;19;20316;-77
2022/06/25 09:25:32;;;;;;;3.78;3.40;;;29.00;99.90;;;;;;7381588;19;20331;-76
2022/06/25 09:27:58;;;;;;;4.50;3.95;;;29.80;99.90;;;;;;7380336;19;20317;-76
2022/06/25 09:30:32;;;;;;;7.60;4.00;;;30.40;99.90;;;;;;7378703;19;20340;-76
2022/06/25 09:33:01;;;;;;;4.35;3.95;;;30.70;99.90;;;;;;7381505;19;20371;-77
2022/06/25 09:35:32;;;;;;;4.50;4.10;;;31.00;99.90;;;;;;7381962;19;20749;-77
2022/06/25 09:38:05;;;;;;;5.03;4.50;;;31.30;99.90;;;;;;7383223;19;20399;-77
2022/06/25 09:40:31;;;;;;;4.88;4.38;;;31.30;99.90;;;;;;7381025;19;20384;-78
2022/06/25 09:42:57;;;;;;;4.37;4.07;;;31.40;99.90;;;;;;7381826;19;20312;-76
2022/06/25 09:45:23;;;;;;;4.43;4.03;;;31.20;99.90;;;;;;7382706;19;20351;-77
2022/06/25 09:47:48;;;;;;;4.17;3.80;;;31.00;99.90;;;;;;7383406;19;20722;-78
2022/06/25 09:50:18;;;;;;;4.63;3.95;;;31.00;99.90;;;;;;7382244;19;20328;-77
2022/06/25 09:52:56;;;;;;;5.68;3.70;;;31.00;99.90;;;;;;7383318;19;20328;-77
2022/06/25 09:55:34;;;;;;;3.80;3.50;;;31.20;99.90;;;;;;7383090;19;20321;-77
2022/06/25 09:58:00;;;;;;;4.38;3.97;;;31.60;99.90;;;;;;7382598;19;20324;-77
2022/06/25 10:00:26;;;;;;;4.65;3.90;;;31.90;99.90;;;;;;7381500;19;20316;-77
2022/06/25 10:02:52;;;;;;;4.90;4.03;;;32.00;99.90;;;;;;7385335;19;20341;-77
2022/06/25 10:05:21;;;;;;;4.05;3.72;;;32.00;99.90;;;;;;7381497;19;20388;-77
2022/06/25 10:08:04;;;;;;;4.10;3.80;;;32.00;99.90;;;;;;7383715;19;20339;-77
2022/06/25 10:10:40;;;;;;;3.92;3.63;;;31.80;99.90;;;;;;7381121;19;20439;-77
2022/06/25 10:13:06;;;;;;;4.30;4.00;;;32.00;99.90;;;;;;7275694;19;2004595;-78
2022/06/25 10:15:32;;;;;;;4.28;3.70;;;32.30;99.90;;;;;;7382175;19;20342;-78
2022/06/25 10:18:02;;;;;;;4.57;3.87;;;32.50;99.90;;;;;;7382978;19;20372;-77
2022/06/25 10:20:28;;;;;;;3.40;3.20;;;32.40;99.80;;;;;;7378440;19;20848;-77
2022/06/25 10:22:54;;;;;;;3.70;3.40;;;32.50;97.70;;;;;;7380326;19;20344;-77
2022/06/25 10:25:22;;;;;;;4.20;3.80;;;32.60;98.80;;;;;;7381711;19;20308;-77
2022/06/25 10:27:49;;;;;;;3.67;3.38;;;32.80;99.40;;;;;;7381305;19;20334;-77
2022/06/25 10:30:34;;;;;;;3.57;3.27;;;32.80;98.60;;;;;;7380442;19;21283;-77
2022/06/25 10:32:59;;;;;;;4.07;3.28;;;33.10;97.40;;;;;;7380895;19;20321;-77
2022/06/25 10:35:36;;;;;;;3.63;3.33;;;33.00;96.00;;;;;;7379676;19;20330;-78
2022/06/25 10:38:09;;;;;;;3.97;3.67;;;33.00;95.70;;;;;;7383252;19;20297;-77
2022/06/25 10:40:53;;;;;;;3.45;3.15;;;32.60;94.70;;;;;;7277088;19;2004386;-78
2022/06/25 10:43:37;;;;;;;3.70;3.30;;;32.20;95.60;;;;;;7383425;19;20348;-77
2022/06/25 10:46:21;;;;;;;3.15;2.88;;;32.10;94.90;;;;;;7383211;19;20396;-77
2022/06/25 10:48:58;;;;;;;3.40;3.10;;;32.20;95.00;;;;;;7278031;19;2004320;-76
2022/06/25 10:51:49;;;;;;;3.45;2.33;;;32.50;95.10;;;;;;7380090;19;20333;-77
2022/06/25 10:54:26;;;;;;;2.97;2.78;;;33.00;92.50;;;;;;7278113;19;2004390;-76
2022/06/25 10:56:57;;;;;;;3.08;2.88;;;32.70;90.10;;;;;;7379851;19;20352;-77
2022/06/25 10:59:34;;;;;;;3.33;3.00;;;32.70;92.10;;;;;;7381886;19;20345;-77
2022/06/25 11:02:02;;;;;;;4.60;2.97;;;32.70;92.00;;;;;;7375078;19;20333;-76
2022/06/25 11:04:27;;;;;;;3.38;3.08;;;32.70;93.90;;;;;;7376656;19;20311;-77
2022/06/25 11:07:06;;;;;;;3.50;3.20;;;32.60;93.10;;;;;;7374786;19;20428;-76
2022/06/25 11:09:31;;;;;;;4.05;3.30;;;32.80;92.80;;;;;;7378052;19;20301;-76
2022/06/25 11:11:57;;;;;;;3.57;3.27;;;33.10;93.80;;;;;;7374798;19;20312;-76
2022/06/25 11:14:24;;;;;;;3.10;2.90;;;33.10;92.10;;;;;;7378553;19;20341;-77
2022/06/25 11:16:50;;;;;;;3.20;3.00;;;32.80;92.40;;;;;;7375414;19;20395;-76
2022/06/25 11:19:15;;;;;;;5.97;3.60;;;33.20;93.20;;;;;;7375519;19;20430;-76
2022/06/25 11:21:42;;;;;;;3.60;3.30;;;33.10;92.40;;;;;;7376398;19;20850;-76
2022/06/25 11:24:21;;;;;;;3.22;2.97;;;33.40;91.50;;;;;;7374230;19;20329;-75
2022/06/25 11:29:46;;;;;;;3.63;3.33;;;34.10;91.00;;;;;;7275810;19;2004373;-77
2022/06/25 11:32:13;;;;;;;3.70;3.40;;;34.40;91.10;;;;;;7377151;19;20321;-77
2022/06/25 11:34:39;;;;;;;3.47;3.27;;;34.70;90.40;;;;;;7378379;19;20313;-77
2022/06/25 11:37:11;;;;;;;2.97;2.77;;;34.50;90.10;;;;;;7378558;19;20330;-78
2022/06/25 11:39:38;;;;;;;3.00;2.75;;;34.60;86.60;;;;;;7380981;19;20644;-77
2022/06/25 11:42:09;;;;;;;3.45;3.15;;;35.20;87.60;;;;;;7380259;19;20961;-77
2022/06/25 11:44:45;;;;;;;3.22;2.92;;;35.30;86.30;;;;;;7277523;19;2004375;-77
2022/06/25 11:47:26;;;;;;;3.40;3.10;;;35.80;85.70;;;;;;7379234;19;20347;-77
2022/06/25 11:49:52;;;;;;;3.17;2.97;;;35.90;85.10;;;;;;7378506;19;20341;-77
2022/06/25 11:52:19;;;;;;;3.60;3.30;;;36.10;80.10;;;;;;7382596;19;20730;-76
2022/06/25 11:54:46;;;;;;;3.70;3.40;;;36.10;80.10;;;;;;7370885;19;20332;-77
2022/06/25 11:57:27;;;;;;;3.30;3.00;;;34.30;73.40;;;;;;7372419;19;20697;-76
2022/06/25 11:59:53;;;;;;;3.33;3.00;;;34.90;80.50;;;;;;7348711;19;20333;-77
2022/06/25 12:02:20;;;;;;;3.67;3.38;;;35.60;80.10;;;;;;7370368;19;20377;-77
2022/06/25 12:04:49;;;;;;;3.38;3.08;;;35.80;75.90;;;;;;7367465;19;20344;-76
2022/06/25 12:07:19;;;;;;;3.33;3.08;;;36.20;77.70;;;;;;7374368;19;20347;-77
2022/06/25 12:09:45;;;;;;;4.22;3.33;;;36.60;73.70;;;;;;7371915;19;20355;-77
2022/06/25 12:12:10;;;;;;;3.33;3.03;;;36.00;71.90;;;;;;7370797;19;20412;-78
2022/06/25 12:14:36;;;;;;;3.40;3.10;;;36.50;75.40;;;;;;7369463;19;20312;-77
2022/06/25 12:17:02;;;;;;;3.17;2.90;;;36.30;73.90;;;;;;7372577;19;21410;-78
2022/06/25 12:19:49;;;;;;;3.70;3.37;;;36.10;74.70;;;;;;7374230;19;20333;-77
2022/06/25 12:22:22;;;;;;;3.33;3.10;;;36.10;74.60;;;;;;7267183;19;2004279;-77
2022/06/25 12:24:48;;;;;;;3.30;3.10;;;36.20;74.80;;;;;;7372590;19;20304;-77
2022/06/25 12:27:14;;;;;;;2.92;2.72;;;36.60;73.10;;;;;;7372306;19;20332;-78
2022/06/25 12:29:39;;;;;;;3.15;2.90;;;36.90;73.50;;;;;;7369029;19;21176;-77
2022/06/25 12:32:05;;;;;;;3.60;3.08;;;37.10;72.10;;;;;;7370742;19;20352;-78
2022/06/25 12:34:31;;;;;;;3.25;2.95;;;37.30;69.40;;;;;;7378141;19;20923;-77
2022/06/25 12:36:56;;;;;;;3.83;3.05;;;37.10;72.30;;;;;;7380223;19;20525;-78
2022/06/25 12:39:35;;;;;;;3.20;2.90;;;37.50;66.40;;;;;;7374208;19;20347;-78
2022/06/25 12:42:06;;;;;;;3.60;2.35;;;38.10;69.40;;;;;;7370518;19;20312;-77
2022/06/25 12:44:33;;;;;;;2.80;2.60;;;39.00;67.80;;;;;;7374066;19;20876;-77
2022/06/25 12:47:03;;;;;;;2.75;2.50;;;38.90;60.50;;;;;;7372685;19;20661;-78
2022/06/25 12:49:52;;;;;;;2.70;2.50;;;39.40;60.00;;;;;;7374510;19;20301;-78
2022/06/25 12:52:19;;;;;;;2.50;2.30;;;39.10;60.10;;;;;;7268463;19;2004756;-78
2022/06/25 12:54:54;;;;;;;2.90;2.25;;;38.80;60.60;;;;;;7370452;19;20320;-77
2022/06/25 12:57:25;;;;;;;2.45;2.30;;;39.10;62.20;;;;;;7372119;19;20354;-77
2022/06/25 12:59:51;;;;;;;2.10;1.98;;;39.30;59.30;;;;;;7368301;19;20339;-77
2022/06/25 13:02:17;;;;;;;2.28;2.08;;;39.10;58.20;;;;;;7369425;19;21019;-78